Time;durP1;ratioP1;P1;durP2;ratioP2;P2;SDS_P1;SDS_P2;PMS_P1;PMS_P2;Temp;Humidity;BMP_temperature;BMP_pressure;BME280_temperature;BME280_humidity;BME280_pressure;Samples;Min_cycle;Max_cycle;Signal;HPM_P1;HPM_P2
2023/03/18 00:00:26;;;;;;;;;;;6.90;75.00;;;;;;5093119;28;19937;-90
2023/03/18 00:02:51;;;;;;;;;;;6.80;75.00;;;;;;5092999;28;19944;-90
2023/03/18 00:05:17;;;;;;;;;;;6.70;74.10;;;;;;5092760;28;19968;-91
2023/03/18 00:07:42;;;;;;;;;;;6.70;73.60;;;;;;5093114;28;19943;-91
2023/03/18 00:10:09;;;;;;;;;;;6.60;74.10;;;;;;5093041;28;19955;-90
2023/03/18 00:12:37;;;;;;;;;;;6.50;75.00;;;;;;5074886;28;19947;-90
2023/03/18 00:15:03;;;;;;;;;;;6.40;75.50;;;;;;5092974;28;19946;-89
2023/03/18 00:17:28;;;;;;;;;;;6.40;76.30;;;;;;5092991;28;20037;-90
2023/03/18 00:19:54;;;;;;;;;;;6.30;76.20;;;;;;5086869;28;19984;-90
2023/03/18 00:22:20;;;;;;;;;;;6.30;75.90;;;;;;5072499;28;19966;-90
2023/03/18 00:24:47;;;;;;;;;;;6.20;76.40;;;;;;5072686;28;20415;-91
2023/03/18 00:27:13;;;;;;;;;;;6.10;76.60;;;;;;5072735;28;19934;-90
2023/03/18 00:29:38;;;;;;;;;;;6.00;77.20;;;;;;5072651;28;20052;-91
2023/03/18 00:32:04;;;;;;;;;;;6.00;78.10;;;;;;5072654;28;19939;-90
2023/03/18 00:34:30;;;;;;;;;;;6.00;79.50;;;;;;5055726;28;19943;-91
2023/03/18 00:36:55;;;;;;;;;;;5.90;80.40;;;;;;5076378;28;20363;-90
2023/03/18 00:39:25;;;;;;;;;;;5.90;79.90;;;;;;5076356;28;20030;-91
2023/03/18 00:41:54;;;;;;;;;;;5.90;80.30;;;;;;5076267;28;19935;-91
2023/03/18 00:44:19;;;;;;;;;;;5.90;80.40;;;;;;5076172;28;19931;-90
2023/03/18 00:46:45;;;;;;;;;;;5.90;80.80;;;;;;5076207;28;19964;-91
2023/03/18 00:49:10;;;;;;;;;;;5.90;81.10;;;;;;5076007;28;19949;-90
2023/03/18 00:51:36;;;;;;;;;;;5.90;81.00;;;;;;5075924;28;19994;-91
2023/03/18 00:54:06;;;;;;;;;;;5.80;80.50;;;;;;5076220;28;19957;-91
2023/03/18 00:56:32;;;;;;;;;;;5.90;79.60;;;;;;5076207;28;19949;-90
2023/03/18 00:58:58;;;;;;;;;;;5.80;79.00;;;;;;5058090;28;20480;-90
2023/03/18 01:01:24;;;;;;;;;;;5.70;79.70;;;;;;5075746;28;19969;-90
2023/03/18 01:03:50;;;;;;;;;;;5.70;80.00;;;;;;5072533;28;19977;-90
2023/03/18 01:06:17;;;;;;;;;;;5.70;79.50;;;;;;5038001;28;19987;-90
2023/03/18 01:08:45;;;;;;;;;;;5.60;79.40;;;;;;5055170;28;20375;-91
2023/03/18 01:11:10;;;;;;;;;;;5.60;79.20;;;;;;5055794;28;19944;-91
2023/03/18 01:13:36;;;;;;;;;;;5.50;79.40;;;;;;5055788;28;19943;-90
2023/03/18 01:16:03;;;;;;;;;;;5.40;79.90;;;;;;5055694;28;19942;-90
2023/03/18 01:18:28;;;;;;;;;;;5.40;79.50;;;;;;5055627;28;19936;-90
2023/03/18 01:20:54;;;;;;;;;;;5.30;79.80;;;;;;5064495;28;19953;-90
2023/03/18 01:23:19;;;;;;;;;;;5.40;80.70;;;;;;5055612;28;19985;-91
2023/03/18 01:25:45;;;;;;;;;;;5.40;80.60;;;;;;5055484;28;19940;-90
2023/03/18 01:28:12;;;;;;;;;;;5.40;80.70;;;;;;5055343;28;19971;-90
2023/03/18 01:30:38;;;;;;;;;;;5.40;80.50;;;;;;5055372;28;20301;-92
2023/03/18 01:33:04;;;;;;;;;;;5.30;79.10;;;;;;5055375;28;19941;-90
2023/03/18 01:35:31;;;;;;;;;;;5.30;78.80;;;;;;5055342;28;19945;-90
2023/03/18 01:37:57;;;;;;;;;;;5.30;79.50;;;;;;5055323;28;19965;-91
2023/03/18 01:40:24;;;;;;;;;;;5.30;80.00;;;;;;5055142;28;19939;-91
2023/03/18 01:42:55;;;;;;;;;;;5.20;80.50;;;;;;5055220;28;20391;-90
2023/03/18 01:45:30;;;;;;;;;;;5.20;79.80;;;;;;5054352;28;19995;-90
2023/03/18 01:47:57;;;;;;;;;;;5.10;79.50;;;;;;5054710;28;19941;-90
2023/03/18 01:50:30;;;;;;;;;;;5.10;80.30;;;;;;5060608;28;20031;-90
2023/03/18 01:52:58;;;;;;;;;;;5.10;80.90;;;;;;5074969;28;19962;-90
2023/03/18 01:55:28;;;;;;;;;;;5.20;81.20;;;;;;5075202;28;19945;-90
2023/03/18 01:57:55;;;;;;;;;;;5.10;81.20;;;;;;5074877;28;19941;-89
2023/03/18 02:00:20;;;;;;;;;;;5.10;81.20;;;;;;5074841;28;20416;-91
2023/03/18 02:02:47;;;;;;;;;;;5.20;81.30;;;;;;5074664;28;19940;-89
2023/03/18 02:05:15;;;;;;;;;;;5.20;80.10;;;;;;5064165;28;20063;-91
2023/03/18 02:07:41;;;;;;;;;;;5.10;79.40;;;;;;5054679;28;19994;-90
2023/03/18 02:10:12;;;;;;;;;;;5.10;79.90;;;;;;5054521;28;19966;-90
2023/03/18 02:12:40;;;;;;;;;;;5.00;79.10;;;;;;5054560;28;20039;-91
2023/03/18 02:15:10;;;;;;;;;;;5.00;78.90;;;;;;5054563;28;19942;-90
2023/03/18 02:17:38;;;;;;;;;;;4.90;78.40;;;;;;5054479;28;20393;-91
2023/03/18 02:20:26;;;;;;;;;;;4.70;78.50;;;;;;5054473;28;19946;-90
2023/03/18 02:22:59;;;;;;;;;;;4.70;79.90;;;;;;5054682;28;19998;-90
2023/03/18 02:25:27;;;;;;;;;;;4.60;80.20;;;;;;5054306;28;20026;-91
2023/03/18 02:27:55;;;;;;;;;;;4.50;80.70;;;;;;5054218;28;19992;-91
2023/03/18 02:30:24;;;;;;;;;;;4.50;82.10;;;;;;5054259;28;19946;-91
2023/03/18 02:32:50;;;;;;;;;;;4.40;83.50;;;;;;5054237;28;19935;-90
2023/03/18 02:35:16;;;;;;;;;;;4.30;84.20;;;;;;5063402;28;20041;-90
2023/03/18 02:37:41;;;;;;;;;;;4.20;85.10;;;;;;5074137;28;20403;-90
2023/03/18 02:40:30;;;;;;;;;;;4.30;85.30;;;;;;5065789;28;19947;-90
2023/03/18 02:42:56;;;;;;;;;;;4.40;85.00;;;;;;5073847;28;19952;-90
2023/03/18 02:45:38;;;;;;;;;;;4.40;83.90;;;;;;5072654;28;19944;-89
2023/03/18 02:48:05;;;;;;;;;;;4.40;83.80;;;;;;5072119;28;19942;-91
2023/03/18 02:50:31;;;;;;;;;;;4.30;83.60;;;;;;5073729;28;20034;-89
2023/03/18 02:52:57;;;;;;;;;;;4.30;83.80;;;;;;5073733;28;20043;-90
2023/03/18 02:55:23;;;;;;;;;;;4.20;84.10;;;;;;5073658;28;19957;-90
2023/03/18 02:57:48;;;;;;;;;;;4.20;84.10;;;;;;5073205;28;19954;-89
2023/03/18 03:00:15;;;;;;;;;;;4.00;84.10;;;;;;5073633;28;20391;-91
2023/03/18 03:02:40;;;;;;;;;;;3.80;84.70;;;;;;5073521;28;20027;-90
2023/03/18 03:05:08;;;;;;;;;;;3.70;85.50;;;;;;5064872;28;19995;-90
2023/03/18 03:07:33;;;;;;;;;;;3.70;86.10;;;;;;5053405;28;19950;-90
2023/03/18 03:09:59;;;;;;;;;;;3.60;86.50;;;;;;5053437;28;19971;-91
2023/03/18 03:12:24;;;;;;;;;;;3.60;86.80;;;;;;5035595;28;19943;-90
2023/03/18 03:14:50;;;;;;;;;;;3.60;86.80;;;;;;5053314;28;19949;-90
2023/03/18 03:17:16;;;;;;;;;;;3.60;87.20;;;;;;5053404;28;19940;-91
2023/03/18 03:19:41;;;;;;;;;;;3.50;87.10;;;;;;5053428;28;19941;-90
2023/03/18 03:22:07;;;;;;;;;;;3.50;87.10;;;;;;5053354;28;20420;-90
2023/03/18 03:24:32;;;;;;;;;;;3.60;87.10;;;;;;5053299;28;19944;-91
2023/03/18 03:26:58;;;;;;;;;;;3.70;86.90;;;;;;5053308;28;20353;-90
2023/03/18 03:29:23;;;;;;;;;;;3.70;86.60;;;;;;5053186;28;19969;-91
2023/03/18 03:31:49;;;;;;;;;;;3.70;86.10;;;;;;5053228;28;20300;-90
2023/03/18 03:34:14;;;;;;;;;;;3.80;86.10;;;;;;5053067;28;19939;-90
2023/03/18 03:36:40;;;;;;;;;;;3.80;86.00;;;;;;5053112;28;19946;-90
2023/03/18 03:39:06;;;;;;;;;;;3.90;85.60;;;;;;5053339;28;19950;-92
2023/03/18 03:41:31;;;;;;;;;;;3.90;85.10;;;;;;5053057;28;20378;-90
2023/03/18 03:43:57;;;;;;;;;;;3.90;84.90;;;;;;5053036;28;19971;-90
2023/03/18 03:46:22;;;;;;;;;;;3.90;84.40;;;;;;5053075;28;20357;-91
2023/03/18 03:48:49;;;;;;;;;;;3.90;84.60;;;;;;5052987;28;20006;-90
2023/03/18 03:51:14;;;;;;;;;;;3.90;84.30;;;;;;5053017;28;19946;-90
2023/03/18 03:53:40;;;;;;;;;;;3.90;85.50;;;;;;5052961;28;19955;-90
2023/03/18 03:56:07;;;;;;;;;;;3.80;85.20;;;;;;5052966;28;19987;-89
2023/03/18 03:58:34;;;;;;;;;;;3.80;85.20;;;;;;5052989;28;19941;-90
2023/03/18 04:00:59;;;;;;;;;;;3.80;85.60;;;;;;5052856;28;20034;-90
2023/03/18 04:03:25;;;;;;;;;;;3.70;85.90;;;;;;5061709;28;19987;-91
2023/03/18 04:05:51;;;;;;;;;;;3.70;86.10;;;;;;5072730;28;19972;-90
2023/03/18 04:08:16;;;;;;;;;;;3.70;86.30;;;;;;5072841;28;19944;-90
2023/03/18 04:10:42;;;;;;;;;;;3.70;86.70;;;;;;5076186;28;19988;-90
2023/03/18 04:13:09;;;;;;;;;;;3.70;86.90;;;;;;5076967;28;19973;-90
2023/03/18 04:15:34;;;;;;;;;;;3.80;87.20;;;;;;5058872;28;19944;-90
2023/03/18 04:18:05;;;;;;;;;;;3.80;87.10;;;;;;5076921;28;19945;-90
2023/03/18 04:20:32;;;;;;;;;;;3.90;86.20;;;;;;5076783;28;20026;-90
2023/03/18 04:22:58;;;;;;;;;;;4.00;85.30;;;;;;5076805;28;19938;-91
2023/03/18 04:25:24;;;;;;;;;;;4.10;85.30;;;;;;5075432;28;19946;-90
2023/03/18 04:27:51;;;;;;;;;;;4.20;84.70;;;;;;5076936;28;19983;-91
2023/03/18 04:30:19;;;;;;;;;;;4.10;84.30;;;;;;5076522;28;20043;-90
2023/03/18 04:32:44;;;;;;;;;;;4.00;83.90;;;;;;5073156;28;19988;-90
2023/03/18 04:35:10;;;;;;;;;;;4.00;83.50;;;;;;5056492;28;20348;-89
2023/03/18 04:37:36;;;;;;;;;;;4.00;83.50;;;;;;5056434;28;19981;-91
2023/03/18 04:40:04;;;;;;;;;;;4.00;83.30;;;;;;5056305;28;20440;-90
2023/03/18 04:42:29;;;;;;;;;;;4.00;82.10;;;;;;5056413;28;19973;-91
2023/03/18 04:44:55;;;;;;;;;;;3.90;82.40;;;;;;5056391;28;20004;-90
2023/03/18 04:47:21;;;;;;;;;;;3.90;82.60;;;;;;5056265;28;19939;-91
2023/03/18 04:49:47;;;;;;;;;;;3.90;83.00;;;;;;5056136;28;19955;-90
2023/03/18 04:52:12;;;;;;;;;;;3.90;83.60;;;;;;5056188;28;20416;-90
2023/03/18 04:54:38;;;;;;;;;;;3.80;83.70;;;;;;5056099;28;20310;-91
2023/03/18 04:57:05;;;;;;;;;;;3.80;83.30;;;;;;5055993;28;20408;-91
2023/03/18 04:59:30;;;;;;;;;;;3.80;83.10;;;;;;5055997;28;20027;-90
2023/03/18 05:01:56;;;;;;;;;;;3.80;84.00;;;;;;5055827;28;20472;-90
2023/03/18 05:04:22;;;;;;;;;;;3.70;84.00;;;;;;5063227;28;20072;-90
2023/03/18 05:06:48;;;;;;;;;;;3.60;84.20;;;;;;5075856;28;19939;-90
2023/03/18 05:09:13;;;;;;;;;;;3.40;84.60;;;;;;5075815;28;20018;-90
2023/03/18 05:11:39;;;;;;;;;;;3.40;84.70;;;;;;5057766;28;19988;-89
2023/03/18 05:14:04;;;;;;;;;;;3.30;84.60;;;;;;5075748;28;19944;-91
2023/03/18 05:16:30;;;;;;;;;;;3.30;84.30;;;;;;5075585;28;19948;-90
2023/03/18 05:18:55;;;;;;;;;;;3.50;84.50;;;;;;5075619;28;20427;-89
2023/03/18 05:21:21;;;;;;;;;;;3.50;84.30;;;;;;5075348;28;20399;-90
2023/03/18 05:23:46;;;;;;;;;;;3.60;84.30;;;;;;5075531;28;20401;-91
2023/03/18 05:26:12;;;;;;;;;;;3.60;84.20;;;;;;5075758;28;20428;-89
2023/03/18 05:28:38;;;;;;;;;;;3.70;84.50;;;;;;5057311;28;20429;-89
2023/03/18 05:31:04;;;;;;;;;;;3.70;85.50;;;;;;5075669;28;19939;-89
2023/03/18 05:33:29;;;;;;;;;;;3.80;85.60;;;;;;5075376;28;20449;-90
2023/03/18 05:35:55;;;;;;;;;;;3.80;85.90;;;;;;5075223;28;19963;-91
2023/03/18 05:38:21;;;;;;;;;;;3.90;85.90;;;;;;5075208;28;20025;-89
2023/03/18 05:40:47;;;;;;;;;;;3.90;85.90;;;;;;5075861;28;19996;-91
2023/03/18 05:43:12;;;;;;;;;;;3.90;85.60;;;;;;5095366;28;20305;-90
2023/03/18 05:45:38;;;;;;;;;;;3.80;85.40;;;;;;5095347;28;20368;-90
2023/03/18 05:48:05;;;;;;;;;;;3.70;85.00;;;;;;5095277;28;20474;-89
2023/03/18 05:50:32;;;;;;;;;;;3.70;84.60;;;;;;5095304;28;19982;-90
2023/03/18 05:52:58;;;;;;;;;;;3.60;84.20;;;;;;5094508;28;19958;-89
2023/03/18 05:55:24;;;;;;;;;;;3.60;84.10;;;;;;5095135;28;19939;-90
2023/03/18 05:57:49;;;;;;;;;;;3.50;84.40;;;;;;5095112;28;19948;-89
2023/03/18 06:00:17;;;;;;;;;;;3.70;85.50;;;;;;5095060;28;19960;-89
2023/03/18 06:02:43;;;;;;;;;;;3.80;86.00;;;;;;5094417;28;19943;-90
2023/03/18 06:05:09;;;;;;;;;;;3.80;85.70;;;;;;5089662;28;19970;-89
2023/03/18 06:07:35;;;;;;;;;;;3.70;85.10;;;;;;5094948;28;20470;-90
2023/03/18 06:10:01;;;;;;;;;;;3.70;85.70;;;;;;5094824;28;19967;-90
2023/03/18 06:12:27;;;;;;;;;;;4.00;86.00;;;;;;5095046;28;20380;-89
2023/03/18 06:14:53;;;;;;;;;;;4.30;85.70;;;;;;5094685;28;20415;-89
2023/03/18 06:17:19;;;;;;;;;;;4.20;85.40;;;;;;5094733;28;20035;-90
2023/03/18 06:19:45;;;;;;;;;;;4.20;85.80;;;;;;5094718;28;20312;-90
2023/03/18 06:22:11;;;;;;;;;;;4.40;85.80;;;;;;5094620;28;19943;-89
2023/03/18 06:24:36;;;;;;;;;;;4.60;85.30;;;;;;5083515;28;19939;-89
2023/03/18 06:27:02;;;;;;;;;;;4.70;85.60;;;;;;5077207;28;19952;-90
2023/03/18 06:29:28;;;;;;;;;;;4.70;85.90;;;;;;5076916;28;20004;-89
2023/03/18 06:31:54;;;;;;;;;;;5.00;85.70;;;;;;5085739;28;19952;-90
2023/03/18 06:34:20;;;;;;;;;;;5.10;85.90;;;;;;5074209;28;19942;-89
2023/03/18 06:36:46;;;;;;;;;;;5.40;86.00;;;;;;5073990;28;19941;-90
2023/03/18 06:39:12;;;;;;;;;;;5.80;85.10;;;;;;5087804;28;19946;-89
2023/03/18 06:41:38;;;;;;;;;;;6.10;84.10;;;;;;5089797;28;20035;-89
2023/03/18 06:44:04;;;;;;;;;;;6.30;83.40;;;;;;5085744;28;19946;-89
2023/03/18 06:46:30;;;;;;;;;;;6.50;82.90;;;;;;5086185;28;20094;-89
2023/03/18 06:48:55;;;;;;;;;;;6.80;82.20;;;;;;5079371;28;19968;-89
2023/03/18 06:51:21;;;;;;;;;;;7.00;81.40;;;;;;5090280;28;20033;-90
2023/03/18 06:53:47;;;;;;;;;;;7.10;80.60;;;;;;5080188;28;19954;-89
2023/03/18 06:56:14;;;;;;;;;;;7.30;80.30;;;;;;5084043;28;20022;-89
2023/03/18 06:58:40;;;;;;;;;;;7.40;79.80;;;;;;5073819;28;19946;-90
2023/03/18 07:01:07;;;;;;;;;;;7.50;80.40;;;;;;5090581;28;20002;-89
2023/03/18 07:03:33;;;;;;;;;;;7.60;81.00;;;;;;5077809;22;19985;-89
2023/03/18 07:05:59;;;;;;;;;;;7.70;81.40;;;;;;5060615;28;20013;-88
2023/03/18 07:08:25;;;;;;;;;;;7.90;81.30;;;;;;5070645;28;20022;-89
2023/03/18 07:10:52;;;;;;;;;;;7.90;81.10;;;;;;5034219;28;19985;-89
2023/03/18 07:13:18;;;;;;;;;;;7.90;81.10;;;;;;5052081;28;19953;-89
2023/03/18 07:15:44;;;;;;;;;;;7.90;80.90;;;;;;5053165;28;19936;-89
2023/03/18 07:18:10;;;;;;;;;;;8.00;81.20;;;;;;5053146;28;19946;-89
2023/03/18 07:20:36;;;;;;;;;;;8.10;81.10;;;;;;5053008;28;19953;-88
2023/03/18 07:23:02;;;;;;;;;;;8.20;80.60;;;;;;5057815;28;20381;-89
2023/03/18 07:25:28;;;;;;;;;;;8.30;80.60;;;;;;5055325;28;20029;-89
2023/03/18 07:27:54;;;;;;;;;;;8.40;80.50;;;;;;5071286;28;19949;-89
2023/03/18 07:30:20;;;;;;;;;;;8.40;80.60;;;;;;5070866;28;20001;-88
2023/03/18 07:32:46;;;;;;;;;;;8.50;80.20;;;;;;5057692;28;20400;-89
2023/03/18 07:35:13;;;;;;;;;;;8.50;79.50;;;;;;5047081;28;19946;-88
2023/03/18 07:37:39;;;;;;;;;;;8.50;79.50;;;;;;5048058;28;19953;-89
2023/03/18 07:40:05;;;;;;;;;;;8.60;79.50;;;;;;5052273;28;19948;-88
2023/03/18 07:42:31;;;;;;;;;;;8.80;79.50;;;;;;5053437;28;19979;-88
2023/03/18 07:44:57;;;;;;;;;;;8.90;79.40;;;;;;5054746;28;19969;-88
2023/03/18 07:47:23;;;;;;;;;;;8.90;77.80;;;;;;5052811;28;19947;-89
2023/03/18 07:49:50;;;;;;;;;;;8.90;77.90;;;;;;5052801;28;20024;-88
2023/03/18 07:52:17;;;;;;;;;;;8.90;77.30;;;;;;5054039;28;20001;-89
2023/03/18 07:54:42;;;;;;;;;;;9.00;77.90;;;;;;5014605;28;19950;-89
2023/03/18 07:57:09;;;;;;;;;;;9.00;76.80;;;;;;5032770;28;19950;-88
2023/03/18 07:59:35;;;;;;;;;;;8.90;76.20;;;;;;5033330;28;19945;-89
2023/03/18 08:02:01;;;;;;;;;;;8.90;74.20;;;;;;5042268;28;19950;-89
2023/03/18 08:04:27;;;;;;;;;;;8.90;73.80;;;;;;5052309;28;20024;-88
2023/03/18 08:06:54;;;;;;;;;;;8.90;74.50;;;;;;5040012;28;19950;-89
2023/03/18 08:09:19;;;;;;;;;;;9.10;74.80;;;;;;5014563;28;19964;-89
2023/03/18 08:11:45;;;;;;;;;;;9.20;75.00;;;;;;5039220;28;19949;-89
2023/03/18 08:14:11;;;;;;;;;;;9.10;74.60;;;;;;5052673;28;19946;-88
2023/03/18 08:16:36;;;;;;;;;;;9.10;75.00;;;;;;5052648;28;19994;-88
2023/03/18 08:19:02;;;;;;;;;;;9.00;73.50;;;;;;5039181;28;19946;-88
2023/03/18 08:21:28;;;;;;;;;;;9.00;70.10;;;;;;5037585;28;19973;-88
2023/03/18 08:23:55;;;;;;;;;;;9.00;70.90;;;;;;5052604;28;19992;-89
2023/03/18 08:26:21;;;;;;;;;;;9.00;71.40;;;;;;5035237;28;19942;-89
2023/03/18 08:28:46;;;;;;;;;;;9.10;73.20;;;;;;5041534;28;19965;-88
2023/03/18 08:31:13;;;;;;;;;;;9.00;71.90;;;;;;5034749;28;20017;-89
2023/03/18 08:33:38;;;;;;;;;;;9.00;71.30;;;;;;5052410;28;20385;-89
2023/03/18 08:36:04;;;;;;;;;;;8.90;71.70;;;;;;5052699;28;19978;-88
2023/03/18 08:38:30;;;;;;;;;;;8.90;73.30;;;;;;5052432;28;19977;-88
2023/03/18 08:40:56;;;;;;;;;;;9.00;72.50;;;;;;5040458;28;19997;-87
2023/03/18 08:43:22;;;;;;;;;;;9.00;71.60;;;;;;5051798;28;19942;-88
2023/03/18 08:45:54;;;;;;;;;;;9.10;72.50;;;;;;5052612;28;20431;-88
2023/03/18 08:48:20;;;;;;;;;;;9.10;71.10;;;;;;5050518;28;20037;-89
2023/03/18 08:50:45;;;;;;;;;;;9.20;72.20;;;;;;5033466;28;19978;-89
2023/03/18 08:53:12;;;;;;;;;;;9.30;71.30;;;;;;5034133;28;20074;-88
2023/03/18 08:55:38;;;;;;;;;;;9.40;71.00;;;;;;5033727;28;19934;-89
2023/03/18 08:58:04;;;;;;;;;;;9.50;71.30;;;;;;5035905;28;20410;-88
2023/03/18 09:00:30;;;;;;;;;;;9.70;68.20;;;;;;5036908;28;20044;-88
2023/03/18 09:02:56;;;;;;;;;;;9.90;68.40;;;;;;5051127;28;20054;-89
2023/03/18 09:05:21;;;;;;;;;;;9.90;67.70;;;;;;5055638;28;19977;-89
2023/03/18 09:07:47;;;;;;;;;;;10.00;67.60;;;;;;5055683;28;19939;-89
2023/03/18 09:10:14;;;;;;;;;;;10.10;68.80;;;;;;5034515;28;20059;-88
2023/03/18 09:12:41;;;;;;;;;;;10.20;67.10;;;;;;5035561;28;20407;-88
2023/03/18 09:15:08;;;;;;;;;;;10.20;66.60;;;;;;5034962;28;20029;-88
2023/03/18 09:17:36;;;;;;;;;;;10.30;67.10;;;;;;5035826;28;19943;-89
2023/03/18 09:20:02;;;;;;;;;;;10.50;68.30;;;;;;5029052;28;20028;-88
2023/03/18 09:22:27;;;;;;;;;;;10.70;67.20;;;;;;5053099;28;19991;-88
2023/03/18 09:24:53;;;;;;;;;;;10.90;66.00;;;;;;5035461;28;19942;-88
2023/03/18 09:27:19;;;;;;;;;;;11.10;64.60;;;;;;5035470;28;19984;-88
2023/03/18 09:29:45;;;;;;;;;;;11.40;65.10;;;;;;5043334;28;20400;-88
2023/03/18 09:32:11;;;;;;;;;;;11.50;64.50;;;;;;5055105;28;19989;-88
2023/03/18 09:34:36;;;;;;;;;;;11.50;62.70;;;;;;5053369;28;19989;-88
2023/03/18 09:37:02;;;;;;;;;;;11.50;63.40;;;;;;5035238;28;19940;-87
2023/03/18 09:39:27;;;;;;;;;;;11.50;60.90;;;;;;5044831;28;20032;-88
2023/03/18 09:42:08;;;;;;;;;;;11.60;59.20;;;;;;5035031;28;20357;-88
2023/03/18 09:44:35;;;;;;;;;;;11.80;59.40;;;;;;5015266;28;20185;-88
2023/03/18 09:47:03;;;;;;;;;;;11.80;59.80;;;;;;5027351;28;19949;-88
2023/03/18 09:49:47;;;;;;;;;;;11.80;59.90;;;;;;5048711;28;19972;-89
2023/03/18 09:52:12;;;;;;;;;;;11.80;58.20;;;;;;5051432;28;19946;-89
2023/03/18 09:54:39;;;;;;;;;;;11.90;58.90;;;;;;5054858;28;20401;-89
2023/03/18 09:57:11;;;;;;;;;;;11.80;58.70;;;;;;5054800;28;20040;-89
2023/03/18 09:59:39;;;;;;;;;;;11.90;58.70;;;;;;5045706;28;19943;-89
2023/03/18 10:02:14;;;;;;;;;;;12.00;60.00;;;;;;5044616;28;19947;-89
2023/03/18 10:04:41;;;;;;;;;;;12.10;60.40;;;;;;5023838;28;19973;-89
2023/03/18 10:07:12;;;;;;;;;;;12.00;59.50;;;;;;5017256;28;19955;-87
2023/03/18 10:09:52;;;;;;;;;;;12.10;58.60;;;;;;5027665;28;19959;-88
2023/03/18 10:12:34;;;;;;;;;;;12.20;59.10;;;;;;5015095;28;19947;-88
2023/03/18 10:15:07;;;;;;;;;;;12.30;58.60;;;;;;5015057;28;20034;-88
2023/03/18 10:17:36;;;;;;;;;;;12.30;61.10;;;;;;5021581;28;20032;-88
2023/03/18 10:20:03;;;;;;;;;;;12.40;60.70;;;;;;5017142;28;19946;-89
2023/03/18 10:22:31;;;;;;;;;;;12.50;62.30;;;;;;5013735;28;20439;-88
2023/03/18 10:25:00;;;;;;;;;;;12.40;60.30;;;;;;4995082;28;19958;-88
2023/03/18 10:27:37;;;;;;;;;;;12.50;59.40;;;;;;4995007;28;20319;-89
2023/03/18 10:30:17;;;;;;;;;;;12.60;60.50;;;;;;5013588;28;20356;-89
2023/03/18 10:32:43;;;;;;;;;;;12.70;59.90;;;;;;5034187;28;19952;-88
2023/03/18 10:35:15;;;;;;;;;;;12.80;59.40;;;;;;5016471;28;19969;-89
2023/03/18 10:37:49;;;;;;;;;;;12.90;58.90;;;;;;5034183;28;19941;-88
2023/03/18 10:40:16;;;;;;;;;;;13.30;56.90;;;;;;5022769;28;19945;-89
2023/03/18 10:42:42;;;;;;;;;;;13.40;57.00;;;;;;5014348;28;20036;-89
2023/03/18 10:45:14;;;;;;;;;;;13.60;57.40;;;;;;5006478;28;19957;-89
2023/03/18 10:47:43;;;;;;;;;;;13.80;56.10;;;;;;5014253;28;20028;-88
2023/03/18 10:50:17;;;;;;;;;;;13.90;57.00;;;;;;5024002;28;19962;-88
2023/03/18 10:52:48;;;;;;;;;;;14.10;56.50;;;;;;5033749;28;19969;-88
2023/03/18 10:55:15;;;;;;;;;;;14.00;53.20;;;;;;5033777;28;19962;-88
2023/03/18 10:57:41;;;;;;;;;;;14.00;53.50;;;;;;5033561;28;20409;-88
2023/03/18 11:00:24;;;;;;;;;;;13.90;54.80;;;;;;5023890;28;19951;-88
2023/03/18 11:02:49;;;;;;;;;;;14.00;56.20;;;;;;5014169;28;19981;-89
2023/03/18 11:05:42;;;;;;;;;;;14.20;55.30;;;;;;5030290;28;20014;-89
2023/03/18 11:08:27;;;;;;;;;;;14.50;53.40;;;;;;5012339;28;19992;-89
2023/03/18 11:10:53;;;;;;;;;;;14.80;49.10;;;;;;5042278;28;19963;-89
2023/03/18 11:13:19;;;;;;;;;;;15.00;49.30;;;;;;5053488;28;20325;-89
2023/03/18 11:15:49;;;;;;;;;;;15.10;49.80;;;;;;5053378;28;19940;-89
2023/03/18 11:18:16;;;;;;;;;;;14.90;49.70;;;;;;5053050;28;20009;-88
2023/03/18 11:20:43;;;;;;;;;;;14.80;49.00;;;;;;5039126;28;20314;-89
2023/03/18 11:23:34;;;;;;;;;;;15.00;50.90;;;;;;5033520;28;19938;-90
2023/03/18 11:26:01;;;;;;;;;;;15.30;48.90;;;;;;5033692;28;19945;-89
2023/03/18 11:28:28;;;;;;;;;;;15.70;47.20;;;;;;5039030;28;19950;-89
2023/03/18 11:30:59;;;;;;;;;;;15.90;50.30;;;;;;5053183;28;19989;-89
2023/03/18 11:33:28;;;;;;;;;;;15.50;50.50;;;;;;5053203;28;19947;-89
2023/03/18 11:35:56;;;;;;;;;;;15.20;47.70;;;;;;5053506;28;19939;-88
2023/03/18 11:38:27;;;;;;;;;;;14.90;49.10;;;;;;5040438;28;19953;-89
2023/03/18 11:41:04;;;;;;;;;;;15.00;49.60;;;;;;5033318;28;19943;-88
2023/03/18 11:43:29;;;;;;;;;;;15.10;50.40;;;;;;5033245;28;19944;-89
2023/03/18 11:45:59;;;;;;;;;;;15.30;47.90;;;;;;5033195;28;19944;-90
2023/03/18 11:48:30;;;;;;;;;;;15.60;47.40;;;;;;5038560;28;19946;-89
2023/03/18 11:50:58;;;;;;;;;;;16.00;45.70;;;;;;5053207;28;20084;-90
2023/03/18 11:53:33;;;;;;;;;;;16.40;45.30;;;;;;5052892;28;20456;-90
2023/03/18 11:56:03;;;;;;;;;;;16.50;43.20;;;;;;5052941;28;19943;-89
2023/03/18 11:58:41;;;;;;;;;;;16.90;42.20;;;;;;5021998;28;19937;-89
2023/03/18 12:01:06;;;;;;;;;;;17.20;41.70;;;;;;5032945;28;19982;-89
2023/03/18 12:03:51;;;;;;;;;;;17.30;41.70;;;;;;5032922;28;19998;-89
2023/03/18 12:06:23;;;;;;;;;;;17.60;41.20;;;;;;5033023;28;19948;-90
2023/03/18 12:08:58;;;;;;;;;;;17.70;42.50;;;;;;5041658;28;19962;-89
2023/03/18 12:11:33;;;;;;;;;;;17.90;43.60;;;;;;5034915;28;20000;-89
2023/03/18 12:14:24;;;;;;;;;;;18.30;40.60;;;;;;5052783;28;19949;-89
2023/03/18 12:16:52;;;;;;;;;;;18.70;42.70;;;;;;5052802;28;20004;-89
2023/03/18 12:19:30;;;;;;;;;;;19.20;41.00;;;;;;5033224;28;19951;-89
2023/03/18 12:22:25;;;;;;;;;;;19.30;38.10;;;;;;5032863;28;20324;-89
2023/03/18 12:25:09;;;;;;;;;;;19.60;36.70;;;;;;5009393;28;20005;-90
2023/03/18 12:27:43;;;;;;;;;;;20.20;39.10;;;;;;5032311;28;19946;-89
2023/03/18 12:30:25;;;;;;;;;;;20.10;36.00;;;;;;5030647;28;20057;-89
2023/03/18 12:33:00;;;;;;;;;;;20.80;34.70;;;;;;5036662;28;19979;-89
2023/03/18 12:35:25;;;;;;;;;;;21.80;33.60;;;;;;5036536;28;20380;-89
2023/03/18 12:37:51;;;;;;;;;;;21.80;33.30;;;;;;5037364;28;19951;-89
2023/03/18 12:40:16;;;;;;;;;;;21.60;34.20;;;;;;5056430;28;19965;-89
2023/03/18 12:42:48;;;;;;;;;;;22.50;33.60;;;;;;5056394;28;20443;-89
2023/03/18 12:45:19;;;;;;;;;;;23.30;33.10;;;;;;5056605;28;19941;-89
2023/03/18 12:47:51;;;;;;;;;;;23.30;31.40;;;;;;5050328;28;19950;-89
2023/03/18 12:50:19;;;;;;;;;;;23.10;32.10;;;;;;5036224;28;19966;-89
2023/03/18 12:52:48;;;;;;;;;;;22.90;30.90;;;;;;5036158;28;20364;-88
2023/03/18 12:55:16;;;;;;;;;;;22.80;32.30;;;;;;5036131;28;19944;-88
2023/03/18 12:57:49;;;;;;;;;;;22.60;30.30;;;;;;5035889;28;19945;-90
2023/03/18 13:00:38;;;;;;;;;;;21.70;32.90;;;;;;5048720;28;19989;-90
2023/03/18 13:03:07;;;;;;;;;;;22.00;31.20;;;;;;5055867;28;19944;-90
2023/03/18 13:05:53;;;;;;;;;;;22.00;31.80;;;;;;5055728;28;20456;-89
2023/03/18 13:08:31;;;;;;;;;;;22.60;34.30;;;;;;5046022;28;20041;-89
2023/03/18 13:11:03;;;;;;;;;;;23.00;33.00;;;;;;5035896;28;19947;-90
2023/03/18 13:13:30;;;;;;;;;;;23.90;31.50;;;;;;5035847;28;19979;-90
2023/03/18 13:15:56;;;;;;;;;;;25.40;28.00;;;;;;5035788;28;20455;-90
2023/03/18 13:18:37;;;;;;;;;;;25.20;28.00;;;;;;5040776;28;19952;-90
2023/03/18 13:21:03;;;;;;;;;;;25.40;29.60;;;;;;5055619;28;19943;-90
2023/03/18 13:23:29;;;;;;;;;;;24.80;27.50;;;;;;5055520;28;19950;-89
2023/03/18 13:25:57;;;;;;;;;;;24.20;29.40;;;;;;5055651;28;19946;-90
2023/03/18 13:28:30;;;;;;;;;;;23.70;30.20;;;;;;5044999;28;19950;-90
2023/03/18 13:31:02;;;;;;;;;;;23.80;28.60;;;;;;5035345;28;19947;-90
2023/03/18 13:33:54;;;;;;;;;;;24.80;28.40;;;;;;5035511;28;19938;-90
2023/03/18 13:36:35;;;;;;;;;;;26.20;27.50;;;;;;5031433;28;20087;-90
2023/03/18 13:39:19;;;;;;;;;;;26.90;26.90;;;;;;5045802;28;20470;-90
2023/03/18 13:41:52;;;;;;;;;;;27.90;24.50;;;;;;5055083;28;19949;-90
2023/03/18 13:44:22;;;;;;;;;;;28.20;23.50;;;;;;5055179;28;19939;-90
2023/03/18 13:47:00;;;;;;;;;;;28.20;23.40;;;;;;5055142;28;20035;-90
2023/03/18 13:49:28;;;;;;;;;;;28.10;23.80;;;;;;5036422;28;20007;-90
2023/03/18 13:51:56;;;;;;;;;;;27.20;25.80;;;;;;5035159;28;19941;-90
2023/03/18 13:54:22;;;;;;;;;;;25.80;26.90;;;;;;5035066;28;20026;-90
2023/03/18 13:56:54;;;;;;;;;;;24.20;29.40;;;;;;5035070;28;20354;-90
2023/03/18 13:59:31;;;;;;;;;;;24.20;30.30;;;;;;5048041;28;20439;-90
2023/03/18 14:01:59;;;;;;;;;;;24.40;30.50;;;;;;5054714;28;19946;-90
2023/03/18 14:04:29;;;;;;;;;;;24.30;28.20;;;;;;5036848;28;20404;-90
2023/03/18 14:07:13;;;;;;;;;;;24.60;29.00;;;;;;5054808;28;19944;-90
2023/03/18 14:09:59;;;;;;;;;;;25.60;28.80;;;;;;5035289;28;20424;-90
2023/03/18 14:12:33;;;;;;;;;;;26.60;27.50;;;;;;5020858;28;19999;-90
2023/03/18 14:15:01;;;;;;;;;;;26.70;26.50;;;;;;5034614;28;19969;-90
2023/03/18 14:17:27;;;;;;;;;;;26.60;25.70;;;;;;5034472;28;19944;-90
2023/03/18 14:19:54;;;;;;;;;;;25.90;27.60;;;;;;5051915;28;19950;-90
2023/03/18 14:22:22;;;;;;;;;;;26.00;27.20;;;;;;5054453;28;20427;-90
2023/03/18 14:25:07;;;;;;;;;;;26.70;26.50;;;;;;5054382;28;19938;-90
2023/03/18 14:27:43;;;;;;;;;;;26.20;26.00;;;;;;5052272;28;19948;-90
2023/03/18 14:30:27;;;;;;;;;;;28.00;23.90;;;;;;5034301;28;19964;-90
2023/03/18 14:32:58;;;;;;;;;;;28.80;22.60;;;;;;5034370;28;19991;-90